sensor_id;sensor_type;location;lat;lon;timestamp;P1;durP1;ratioP1;P2;durP2;ratioP2
20236;SDS011;10277;54.386;18.596;2022-12-29T00:01:30;10.23;;;7.40;;
20236;SDS011;10277;54.386;18.596;2022-12-29T00:06:33;10.03;;;7.60;;
20236;SDS011;10277;54.386;18.596;2022-12-29T00:11:39;12.37;;;8.07;;
20236;SDS011;10277;54.386;18.596;2022-12-29T00:16:43;12.03;;;9.13;;
20236;SDS011;10277;54.386;18.596;2022-12-29T00:21:47;27.80;;;13.90;;
20236;SDS011;10277;54.386;18.596;2022-12-29T00:27:10;9.27;;;7.27;;
20236;SDS011;10277;54.386;18.596;2022-12-29T00:32:35;8.77;;;6.13;;
20236;SDS011;10277;54.386;18.596;2022-12-29T00:37:58;10.03;;;7.30;;
20236;SDS011;10277;54.386;18.596;2022-12-29T00:43:24;11.27;;;5.53;;
20236;SDS011;10277;54.386;18.596;2022-12-29T00:48:46;7.43;;;5.07;;
20236;SDS011;10277;54.386;18.596;2022-12-29T00:54:08;5.30;;;4.57;;
20236;SDS011;10277;54.386;18.596;2022-12-29T00:59:12;4.90;;;4.33;;
20236;SDS011;10277;54.386;18.596;2022-12-29T01:04:16;6.93;;;4.10;;
20236;SDS011;10277;54.386;18.596;2022-12-29T01:09:19;5.17;;;3.70;;
20236;SDS011;10277;54.386;18.596;2022-12-29T01:14:42;4.10;;;3.60;;
20236;SDS011;10277;54.386;18.596;2022-12-29T01:19:45;4.80;;;3.70;;
20236;SDS011;10277;54.386;18.596;2022-12-29T01:24:48;3.97;;;3.40;;
20236;SDS011;10277;54.386;18.596;2022-12-29T01:29:51;4.23;;;3.33;;
20236;SDS011;10277;54.386;18.596;2022-12-29T01:34:54;4.77;;;3.30;;
20236;SDS011;10277;54.386;18.596;2022-12-29T01:39:58;5.07;;;3.40;;
20236;SDS011;10277;54.386;18.596;2022-12-29T01:45:02;4.23;;;3.50;;
20236;SDS011;10277;54.386;18.596;2022-12-29T01:50:09;5.27;;;3.93;;
20236;SDS011;10277;54.386;18.596;2022-12-29T01:55:15;5.93;;;3.57;;
20236;SDS011;10277;54.386;18.596;2022-12-29T02:00:20;4.53;;;3.03;;
20236;SDS011;10277;54.386;18.596;2022-12-29T02:05:28;3.27;;;2.80;;
20236;SDS011;10277;54.386;18.596;2022-12-29T02:10:36;4.50;;;2.93;;
20236;SDS011;10277;54.386;18.596;2022-12-29T02:38:01;3.57;;;2.70;;
20236;SDS011;10277;54.386;18.596;2022-12-29T02:49:20;5.33;;;3.40;;
20236;SDS011;10277;54.386;18.596;2022-12-29T02:54:30;4.27;;;3.57;;
20236;SDS011;10277;54.386;18.596;2022-12-29T02:59:57;3.87;;;2.67;;
20236;SDS011;10277;54.386;18.596;2022-12-29T03:10:43;3.67;;;3.17;;
20236;SDS011;10277;54.386;18.596;2022-12-29T03:16:01;5.63;;;3.30;;
20236;SDS011;10277;54.386;18.596;2022-12-29T03:26:58;3.43;;;3.10;;
20236;SDS011;10277;54.386;18.596;2022-12-29T03:32:06;3.93;;;3.53;;
20236;SDS011;10277;54.386;18.596;2022-12-29T03:37:13;4.87;;;3.73;;
20236;SDS011;10277;54.386;18.596;2022-12-29T03:42:20;4.47;;;3.90;;
20236;SDS011;10277;54.386;18.596;2022-12-29T03:47:24;4.63;;;4.07;;
20236;SDS011;10277;54.386;18.596;2022-12-29T03:52:28;6.37;;;4.47;;
20236;SDS011;10277;54.386;18.596;2022-12-29T03:57:31;5.10;;;4.57;;
20236;SDS011;10277;54.386;18.596;2022-12-29T04:02:38;5.70;;;4.90;;
20236;SDS011;10277;54.386;18.596;2022-12-29T04:07:42;7.10;;;5.53;;
20236;SDS011;10277;54.386;18.596;2022-12-29T04:12:45;6.07;;;5.23;;
20236;SDS011;10277;54.386;18.596;2022-12-29T04:17:49;6.93;;;6.20;;
20236;SDS011;10277;54.386;18.596;2022-12-29T04:22:59;9.17;;;7.37;;
20236;SDS011;10277;54.386;18.596;2022-12-29T04:28:03;12.03;;;8.60;;
20236;SDS011;10277;54.386;18.596;2022-12-29T04:33:12;10.87;;;8.67;;
20236;SDS011;10277;54.386;18.596;2022-12-29T04:38:17;10.70;;;8.80;;
20236;SDS011;10277;54.386;18.596;2022-12-29T04:43:21;13.17;;;9.03;;
20236;SDS011;10277;54.386;18.596;2022-12-29T04:48:48;11.47;;;8.87;;
20236;SDS011;10277;54.386;18.596;2022-12-29T04:54:03;12.37;;;9.50;;
20236;SDS011;10277;54.386;18.596;2022-12-29T04:59:07;12.20;;;9.23;;
20236;SDS011;10277;54.386;18.596;2022-12-29T05:04:10;10.67;;;9.40;;
20236;SDS011;10277;54.386;18.596;2022-12-29T05:09:19;12.03;;;9.30;;
20236;SDS011;10277;54.386;18.596;2022-12-29T05:14:23;10.93;;;9.07;;
20236;SDS011;10277;54.386;18.596;2022-12-29T05:19:26;15.20;;;9.87;;
20236;SDS011;10277;54.386;18.596;2022-12-29T05:24:29;15.47;;;10.07;;
20236;SDS011;10277;54.386;18.596;2022-12-29T05:29:33;12.63;;;9.87;;
20236;SDS011;10277;54.386;18.596;2022-12-29T05:34:37;13.37;;;10.23;;
20236;SDS011;10277;54.386;18.596;2022-12-29T05:39:40;13.60;;;10.53;;
20236;SDS011;10277;54.386;18.596;2022-12-29T05:44:44;13.90;;;10.70;;
20236;SDS011;10277;54.386;18.596;2022-12-29T05:50:09;15.63;;;10.73;;
20236;SDS011;10277;54.386;18.596;2022-12-29T05:55:46;12.57;;;9.70;;
20236;SDS011;10277;54.386;18.596;2022-12-29T06:00:51;13.70;;;10.50;;
20236;SDS011;10277;54.386;18.596;2022-12-29T06:05:54;13.60;;;10.17;;
20236;SDS011;10277;54.386;18.596;2022-12-29T06:10:57;12.77;;;9.70;;
20236;SDS011;10277;54.386;18.596;2022-12-29T06:16:01;15.03;;;11.03;;
20236;SDS011;10277;54.386;18.596;2022-12-29T06:21:05;12.13;;;10.13;;
20236;SDS011;10277;54.386;18.596;2022-12-29T06:26:08;16.00;;;12.10;;
20236;SDS011;10277;54.386;18.596;2022-12-29T06:31:12;15.87;;;10.13;;
20236;SDS011;10277;54.386;18.596;2022-12-29T06:36:15;14.00;;;10.33;;
20236;SDS011;10277;54.386;18.596;2022-12-29T06:41:19;18.90;;;13.03;;
20236;SDS011;10277;54.386;18.596;2022-12-29T06:46:56;13.33;;;9.87;;
20236;SDS011;10277;54.386;18.596;2022-12-29T06:51:59;14.93;;;11.40;;
20236;SDS011;10277;54.386;18.596;2022-12-29T06:57:03;13.70;;;10.50;;
20236;SDS011;10277;54.386;18.596;2022-12-29T07:02:06;16.57;;;13.03;;
20236;SDS011;10277;54.386;18.596;2022-12-29T07:07:11;13.10;;;9.50;;
20236;SDS011;10277;54.386;18.596;2022-12-29T07:12:14;13.03;;;10.17;;
20236;SDS011;10277;54.386;18.596;2022-12-29T07:17:17;22.77;;;15.90;;
20236;SDS011;10277;54.386;18.596;2022-12-29T07:22:20;11.40;;;9.30;;
20236;SDS011;10277;54.386;18.596;2022-12-29T07:27:23;13.77;;;9.10;;
20236;SDS011;10277;54.386;18.596;2022-12-29T07:32:26;12.53;;;8.70;;
20236;SDS011;10277;54.386;18.596;2022-12-29T07:37:29;15.73;;;9.67;;
20236;SDS011;10277;54.386;18.596;2022-12-29T07:42:32;15.57;;;9.27;;
20236;SDS011;10277;54.386;18.596;2022-12-29T07:47:35;17.70;;;11.77;;
20236;SDS011;10277;54.386;18.596;2022-12-29T07:52:38;11.23;;;8.67;;
20236;SDS011;10277;54.386;18.596;2022-12-29T07:57:41;13.57;;;10.37;;
20236;SDS011;10277;54.386;18.596;2022-12-29T08:02:47;11.77;;;8.83;;
20236;SDS011;10277;54.386;18.596;2022-12-29T08:07:50;12.30;;;9.60;;
20236;SDS011;10277;54.386;18.596;2022-12-29T08:12:53;13.00;;;9.40;;
20236;SDS011;10277;54.386;18.596;2022-12-29T08:17:56;11.90;;;8.83;;
20236;SDS011;10277;54.386;18.596;2022-12-29T08:22:59;11.77;;;8.20;;
20236;SDS011;10277;54.386;18.596;2022-12-29T08:28:02;11.70;;;8.23;;
20236;SDS011;10277;54.386;18.596;2022-12-29T08:33:05;9.93;;;7.80;;
20236;SDS011;10277;54.386;18.596;2022-12-29T08:38:09;9.80;;;7.87;;
20236;SDS011;10277;54.386;18.596;2022-12-29T08:43:14;10.97;;;7.47;;
20236;SDS011;10277;54.386;18.596;2022-12-29T08:48:20;10.30;;;8.00;;
20236;SDS011;10277;54.386;18.596;2022-12-29T08:53:24;9.87;;;7.60;;
20236;SDS011;10277;54.386;18.596;2022-12-29T08:58:28;11.67;;;8.00;;
20236;SDS011;10277;54.386;18.596;2022-12-29T09:03:31;12.90;;;7.93;;
20236;SDS011;10277;54.386;18.596;2022-12-29T09:08:54;14.67;;;8.70;;
20236;SDS011;10277;54.386;18.596;2022-12-29T09:13:58;9.73;;;7.27;;
20236;SDS011;10277;54.386;18.596;2022-12-29T09:19:02;11.93;;;8.37;;
20236;SDS011;10277;54.386;18.596;2022-12-29T09:24:06;9.30;;;7.63;;
20236;SDS011;10277;54.386;18.596;2022-12-29T09:29:09;9.63;;;7.70;;
20236;SDS011;10277;54.386;18.596;2022-12-29T09:34:13;9.83;;;7.60;;
20236;SDS011;10277;54.386;18.596;2022-12-29T09:39:16;14.63;;;7.17;;
20236;SDS011;10277;54.386;18.596;2022-12-29T09:44:22;9.90;;;7.30;;
20236;SDS011;10277;54.386;18.596;2022-12-29T10:00:13;10.53;;;8.23;;
20236;SDS011;10277;54.386;18.596;2022-12-29T10:10:31;9.83;;;7.47;;
20236;SDS011;10277;54.386;18.596;2022-12-29T10:15:49;10.70;;;7.10;;
20236;SDS011;10277;54.386;18.596;2022-12-29T10:21:05;9.63;;;6.50;;
20236;SDS011;10277;54.386;18.596;2022-12-29T10:26:30;8.10;;;6.43;;
20236;SDS011;10277;54.386;18.596;2022-12-29T10:31:40;10.97;;;6.60;;
20236;SDS011;10277;54.386;18.596;2022-12-29T10:36:48;8.87;;;6.63;;
20236;SDS011;10277;54.386;18.596;2022-12-29T10:41:57;9.07;;;5.97;;
20236;SDS011;10277;54.386;18.596;2022-12-29T10:47:16;7.80;;;5.70;;
20236;SDS011;10277;54.386;18.596;2022-12-29T10:52:23;10.67;;;6.70;;
20236;SDS011;10277;54.386;18.596;2022-12-29T10:57:32;8.00;;;5.93;;
20236;SDS011;10277;54.386;18.596;2022-12-29T11:08:24;10.13;;;6.10;;
20236;SDS011;10277;54.386;18.596;2022-12-29T11:13:30;10.97;;;7.17;;
20236;SDS011;10277;54.386;18.596;2022-12-29T11:18:40;8.30;;;6.40;;
20236;SDS011;10277;54.386;18.596;2022-12-29T11:23:44;16.47;;;14.73;;
20236;SDS011;10277;54.386;18.596;2022-12-29T11:34:16;9.90;;;6.73;;
20236;SDS011;10277;54.386;18.596;2022-12-29T11:39:31;9.40;;;5.43;;
20236;SDS011;10277;54.386;18.596;2022-12-29T11:44:37;11.70;;;8.90;;
20236;SDS011;10277;54.386;18.596;2022-12-29T11:49:49;10.23;;;7.20;;
20236;SDS011;10277;54.386;18.596;2022-12-29T11:54:53;8.63;;;6.17;;
20236;SDS011;10277;54.386;18.596;2022-12-29T11:59:56;9.87;;;6.20;;
20236;SDS011;10277;54.386;18.596;2022-12-29T12:05:07;15.97;;;10.97;;
20236;SDS011;10277;54.386;18.596;2022-12-29T12:10:18;12.40;;;8.80;;
20236;SDS011;10277;54.386;18.596;2022-12-29T12:15:27;8.43;;;6.53;;
20236;SDS011;10277;54.386;18.596;2022-12-29T12:20:50;11.87;;;7.77;;
20236;SDS011;10277;54.386;18.596;2022-12-29T12:26:10;9.37;;;4.93;;
20236;SDS011;10277;54.386;18.596;2022-12-29T12:31:17;7.77;;;5.90;;
20236;SDS011;10277;54.386;18.596;2022-12-29T12:53:15;7.27;;;5.73;;
20236;SDS011;10277;54.386;18.596;2022-12-29T12:58:39;9.10;;;6.20;;
20236;SDS011;10277;54.386;18.596;2022-12-29T13:20:17;7.30;;;4.97;;
20236;SDS011;10277;54.386;18.596;2022-12-29T13:30:34;10.30;;;5.80;;
20236;SDS011;10277;54.386;18.596;2022-12-29T13:41:04;10.13;;;7.53;;
20236;SDS011;10277;54.386;18.596;2022-12-29T13:46:27;7.60;;;5.80;;
20236;SDS011;10277;54.386;18.596;2022-12-29T13:51:32;6.67;;;5.37;;
20236;SDS011;10277;54.386;18.596;2022-12-29T13:56:43;9.03;;;6.20;;
20236;SDS011;10277;54.386;18.596;2022-12-29T14:01:57;14.77;;;8.37;;
20236;SDS011;10277;54.386;18.596;2022-12-29T14:07:12;11.77;;;7.70;;
20236;SDS011;10277;54.386;18.596;2022-12-29T14:12:30;16.87;;;11.77;;
20236;SDS011;10277;54.386;18.596;2022-12-29T14:17:40;22.50;;;13.77;;
20236;SDS011;10277;54.386;18.596;2022-12-29T14:23:00;15.53;;;9.97;;
20236;SDS011;10277;54.386;18.596;2022-12-29T14:28:51;15.20;;;10.60;;
20236;SDS011;10277;54.386;18.596;2022-12-29T14:44:30;23.63;;;16.97;;
20236;SDS011;10277;54.386;18.596;2022-12-29T14:49:40;13.60;;;10.13;;
20236;SDS011;10277;54.386;18.596;2022-12-29T14:54:46;20.33;;;12.10;;
20236;SDS011;10277;54.386;18.596;2022-12-29T14:59:56;16.17;;;8.63;;
20236;SDS011;10277;54.386;18.596;2022-12-29T15:05:03;15.50;;;10.43;;
20236;SDS011;10277;54.386;18.596;2022-12-29T15:10:11;14.23;;;10.13;;
20236;SDS011;10277;54.386;18.596;2022-12-29T15:25:27;11.00;;;7.10;;
20236;SDS011;10277;54.386;18.596;2022-12-29T15:30:32;10.13;;;6.57;;
20236;SDS011;10277;54.386;18.596;2022-12-29T15:35:36;13.80;;;8.60;;
20236;SDS011;10277;54.386;18.596;2022-12-29T15:40:41;12.73;;;9.10;;
20236;SDS011;10277;54.386;18.596;2022-12-29T15:45:46;14.60;;;9.93;;
20236;SDS011;10277;54.386;18.596;2022-12-29T15:50:50;14.00;;;8.60;;
20236;SDS011;10277;54.386;18.596;2022-12-29T15:55:57;12.30;;;7.30;;
20236;SDS011;10277;54.386;18.596;2022-12-29T16:01:24;19.63;;;12.93;;
20236;SDS011;10277;54.386;18.596;2022-12-29T16:06:36;24.37;;;16.47;;
20236;SDS011;10277;54.386;18.596;2022-12-29T16:11:40;19.77;;;12.70;;
20236;SDS011;10277;54.386;18.596;2022-12-29T16:16:56;13.80;;;8.50;;
20236;SDS011;10277;54.386;18.596;2022-12-29T16:22:01;16.20;;;9.80;;
20236;SDS011;10277;54.386;18.596;2022-12-29T16:27:16;14.50;;;9.20;;
20236;SDS011;10277;54.386;18.596;2022-12-29T16:32:28;13.23;;;9.60;;
20236;SDS011;10277;54.386;18.596;2022-12-29T16:37:33;15.07;;;9.10;;
20236;SDS011;10277;54.386;18.596;2022-12-29T16:53:19;16.10;;;10.40;;
20236;SDS011;10277;54.386;18.596;2022-12-29T16:58:26;14.13;;;8.63;;
20236;SDS011;10277;54.386;18.596;2022-12-29T17:03:38;12.43;;;7.27;;
20236;SDS011;10277;54.386;18.596;2022-12-29T17:08:42;9.90;;;6.40;;
20236;SDS011;10277;54.386;18.596;2022-12-29T17:13:46;6.73;;;3.80;;
20236;SDS011;10277;54.386;18.596;2022-12-29T17:18:49;8.57;;;5.80;;
20236;SDS011;10277;54.386;18.596;2022-12-29T17:23:52;9.50;;;6.57;;
20236;SDS011;10277;54.386;18.596;2022-12-29T17:28:55;17.50;;;11.40;;
20236;SDS011;10277;54.386;18.596;2022-12-29T17:33:58;18.40;;;13.23;;
20236;SDS011;10277;54.386;18.596;2022-12-29T17:39:04;9.87;;;6.53;;
20236;SDS011;10277;54.386;18.596;2022-12-29T17:44:13;17.83;;;11.43;;
20236;SDS011;10277;54.386;18.596;2022-12-29T17:49:18;50.03;;;26.70;;
20236;SDS011;10277;54.386;18.596;2022-12-29T17:54:22;59.50;;;29.23;;
20236;SDS011;10277;54.386;18.596;2022-12-29T17:59:26;41.30;;;21.10;;
20236;SDS011;10277;54.386;18.596;2022-12-29T18:04:32;14.93;;;10.53;;
20236;SDS011;10277;54.386;18.596;2022-12-29T18:09:35;13.10;;;8.80;;
20236;SDS011;10277;54.386;18.596;2022-12-29T18:14:38;11.77;;;8.53;;
20236;SDS011;10277;54.386;18.596;2022-12-29T18:19:43;13.83;;;8.00;;
20236;SDS011;10277;54.386;18.596;2022-12-29T18:24:46;14.03;;;8.20;;
20236;SDS011;10277;54.386;18.596;2022-12-29T18:29:49;17.77;;;12.43;;
20236;SDS011;10277;54.386;18.596;2022-12-29T18:34:52;9.47;;;6.70;;
20236;SDS011;10277;54.386;18.596;2022-12-29T18:39:56;13.37;;;8.83;;
20236;SDS011;10277;54.386;18.596;2022-12-29T18:45:01;11.03;;;6.77;;
20236;SDS011;10277;54.386;18.596;2022-12-29T18:50:04;15.53;;;10.20;;
20236;SDS011;10277;54.386;18.596;2022-12-29T18:55:11;13.87;;;9.10;;
20236;SDS011;10277;54.386;18.596;2022-12-29T19:00:16;9.67;;;6.73;;
20236;SDS011;10277;54.386;18.596;2022-12-29T19:10:30;12.83;;;8.50;;
20236;SDS011;10277;54.386;18.596;2022-12-29T19:15:34;10.23;;;5.30;;
20236;SDS011;10277;54.386;18.596;2022-12-29T19:20:41;28.73;;;13.83;;
20236;SDS011;10277;54.386;18.596;2022-12-29T19:25:45;16.77;;;10.47;;
20236;SDS011;10277;54.386;18.596;2022-12-29T19:30:51;10.87;;;8.80;;
20236;SDS011;10277;54.386;18.596;2022-12-29T19:35:59;14.70;;;8.83;;
20236;SDS011;10277;54.386;18.596;2022-12-29T19:41:05;16.10;;;11.00;;
20236;SDS011;10277;54.386;18.596;2022-12-29T19:46:09;23.17;;;14.07;;
20236;SDS011;10277;54.386;18.596;2022-12-29T19:51:15;18.70;;;13.17;;
20236;SDS011;10277;54.386;18.596;2022-12-29T19:56:19;14.70;;;8.23;;
20236;SDS011;10277;54.386;18.596;2022-12-29T20:01:22;12.57;;;7.70;;
20236;SDS011;10277;54.386;18.596;2022-12-29T20:06:27;7.70;;;5.03;;
20236;SDS011;10277;54.386;18.596;2022-12-29T20:11:30;9.27;;;5.37;;
20236;SDS011;10277;54.386;18.596;2022-12-29T20:16:34;9.70;;;5.67;;
20236;SDS011;10277;54.386;18.596;2022-12-29T20:21:57;9.30;;;4.87;;
20236;SDS011;10277;54.386;18.596;2022-12-29T20:27:01;15.20;;;8.63;;
20236;SDS011;10277;54.386;18.596;2022-12-29T20:32:11;11.80;;;7.17;;
20236;SDS011;10277;54.386;18.596;2022-12-29T20:37:17;10.80;;;4.80;;
20236;SDS011;10277;54.386;18.596;2022-12-29T20:42:20;9.30;;;6.23;;
20236;SDS011;10277;54.386;18.596;2022-12-29T20:47:23;9.83;;;3.90;;
20236;SDS011;10277;54.386;18.596;2022-12-29T20:52:26;6.90;;;4.53;;
20236;SDS011;10277;54.386;18.596;2022-12-29T20:57:30;7.07;;;5.10;;
20236;SDS011;10277;54.386;18.596;2022-12-29T21:02:53;7.50;;;4.90;;
20236;SDS011;10277;54.386;18.596;2022-12-29T21:07:57;8.73;;;4.90;;
20236;SDS011;10277;54.386;18.596;2022-12-29T21:13:01;10.43;;;4.97;;
20236;SDS011;10277;54.386;18.596;2022-12-29T21:18:04;9.27;;;4.50;;
20236;SDS011;10277;54.386;18.596;2022-12-29T21:23:08;8.73;;;5.40;;
20236;SDS011;10277;54.386;18.596;2022-12-29T21:28:11;5.50;;;4.03;;
20236;SDS011;10277;54.386;18.596;2022-12-29T21:33:15;7.10;;;4.07;;
20236;SDS011;10277;54.386;18.596;2022-12-29T21:38:18;5.47;;;3.40;;
20236;SDS011;10277;54.386;18.596;2022-12-29T21:43:21;4.53;;;3.30;;
20236;SDS011;10277;54.386;18.596;2022-12-29T21:48:24;5.77;;;3.63;;
20236;SDS011;10277;54.386;18.596;2022-12-29T21:53:31;7.40;;;3.70;;
20236;SDS011;10277;54.386;18.596;2022-12-29T21:58:43;8.90;;;5.30;;
20236;SDS011;10277;54.386;18.596;2022-12-29T22:04:06;5.73;;;3.57;;
20236;SDS011;10277;54.386;18.596;2022-12-29T22:09:27;6.23;;;3.43;;
20236;SDS011;10277;54.386;18.596;2022-12-29T22:14:48;4.17;;;2.73;;
20236;SDS011;10277;54.386;18.596;2022-12-29T22:19:55;5.80;;;2.97;;
20236;SDS011;10277;54.386;18.596;2022-12-29T22:24:58;4.77;;;3.20;;
20236;SDS011;10277;54.386;18.596;2022-12-29T22:30:02;9.20;;;4.50;;
20236;SDS011;10277;54.386;18.596;2022-12-29T22:35:07;5.60;;;2.97;;
20236;SDS011;10277;54.386;18.596;2022-12-29T22:40:11;5.17;;;3.13;;
20236;SDS011;10277;54.386;18.596;2022-12-29T22:45:14;5.50;;;3.47;;
20236;SDS011;10277;54.386;18.596;2022-12-29T22:50:17;6.60;;;3.33;;
20236;SDS011;10277;54.386;18.596;2022-12-29T22:55:20;5.73;;;3.00;;
20236;SDS011;10277;54.386;18.596;2022-12-29T23:00:27;6.00;;;3.53;;
20236;SDS011;10277;54.386;18.596;2022-12-29T23:05:30;6.83;;;3.00;;
20236;SDS011;10277;54.386;18.596;2022-12-29T23:10:33;9.00;;;2.87;;
20236;SDS011;10277;54.386;18.596;2022-12-29T23:15:36;5.87;;;2.77;;
20236;SDS011;10277;54.386;18.596;2022-12-29T23:20:39;4.47;;;2.63;;
20236;SDS011;10277;54.386;18.596;2022-12-29T23:25:42;4.93;;;3.50;;
20236;SDS011;10277;54.386;18.596;2022-12-29T23:30:49;8.00;;;3.60;;
20236;SDS011;10277;54.386;18.596;2022-12-29T23:35:55;5.67;;;3.10;;
20236;SDS011;10277;54.386;18.596;2022-12-29T23:40:58;5.43;;;3.27;;
20236;SDS011;10277;54.386;18.596;2022-12-29T23:46:11;7.67;;;3.40;;
20236;SDS011;10277;54.386;18.596;2022-12-29T23:51:18;5.53;;;3.23;;
20236;SDS011;10277;54.386;18.596;2022-12-29T23:56:21;6.17;;;3.43;;
